createdAt,value
2018-02-15T00:00:10.464Z,19.98
2018-02-15T00:02:37.970Z,20.58
2018-02-15T00:05:05.815Z,19.58
2018-02-15T00:07:33.329Z,20.55
2018-02-15T00:10:00.838Z,21.02
2018-02-15T00:12:29.110Z,18.90
2018-02-15T00:14:57.506Z,18.67
2018-02-15T00:17:26.714Z,19.27
2018-02-15T00:19:55.092Z,18.00
2018-02-15T00:22:24.088Z,19.33
2018-02-15T00:24:51.637Z,17.62
2018-02-15T00:27:19.170Z,18.35
2018-02-15T00:29:47.555Z,17.55
2018-02-15T00:32:15.853Z,17.05
2018-02-15T00:34:44.103Z,18.80
2018-02-15T00:37:11.593Z,18.42
2018-02-15T00:39:39.101Z,17.27
2018-02-15T00:42:06.931Z,16.20
2018-02-15T00:44:34.529Z,17.58
2018-02-15T00:47:02.783Z,16.17
2018-02-15T00:49:30.383Z,17.27
2018-02-15T00:51:58.799Z,16.52
2018-02-15T00:54:26.494Z,16.45
2018-02-15T00:56:53.991Z,16.42
2018-02-15T00:59:21.622Z,16.23
2018-02-15T01:01:49.218Z,16.10
2018-02-15T01:04:16.788Z,15.30
2018-02-15T01:06:44.354Z,16.23
2018-02-15T01:09:11.842Z,15.65
2018-02-15T01:11:39.441Z,15.48
2018-02-15T01:14:07.837Z,16.10
2018-02-15T01:16:35.341Z,16.45
2018-02-15T01:19:02.828Z,16.90
2018-02-15T01:21:30.412Z,15.93
2018-02-15T01:23:57.913Z,14.32
2018-02-15T01:26:25.762Z,15.23
2018-02-15T01:28:53.649Z,15.75
2018-02-15T01:31:21.151Z,15.32
2018-02-15T01:33:49.405Z,15.48
2018-02-15T01:36:16.956Z,16.00
2018-02-15T01:38:44.468Z,15.38
2018-02-15T01:41:12.231Z,15.40
2018-02-15T01:43:39.779Z,15.60
2018-02-15T01:46:07.289Z,14.32
2018-02-15T01:48:34.785Z,14.13
2018-02-15T01:51:03.031Z,14.87
2018-02-15T01:53:30.661Z,14.65
2018-02-15T01:55:58.482Z,13.73
2018-02-15T01:58:25.978Z,14.38
2018-02-15T02:00:53.505Z,14.07
2018-02-15T02:03:20.988Z,13.98
2018-02-15T02:05:48.478Z,14.38
2018-02-15T02:08:16.256Z,15.27
2018-02-15T02:10:45.236Z,13.55
2018-02-15T02:13:12.726Z,13.50
2018-02-15T02:15:40.289Z,13.85
2018-02-15T02:18:07.886Z,14.02
2018-02-15T02:20:59.846Z,13.60
2018-02-15T02:23:28.105Z,13.70
2018-02-15T02:25:55.661Z,14.25
2018-02-15T02:28:24.141Z,13.43
2018-02-15T02:30:52.455Z,12.43
2018-02-15T02:33:19.967Z,13.18
2018-02-15T02:35:47.449Z,13.73
2018-02-15T02:38:14.945Z,13.73
2018-02-15T02:40:43.000Z,14.38
2018-02-15T02:43:10.535Z,13.90
2018-02-15T02:45:38.026Z,12.60
2018-02-15T02:48:06.329Z,12.98
2018-02-15T02:50:34.069Z,12.93
2018-02-15T02:53:01.557Z,12.40
2018-02-15T02:55:29.817Z,13.00
2018-02-15T02:57:57.314Z,12.50
2018-02-15T03:00:25.566Z,13.43
2018-02-15T03:02:53.301Z,11.70
2018-02-15T03:05:20.797Z,13.02
2018-02-15T03:07:48.294Z,11.30
2018-02-15T03:10:15.782Z,12.63
2018-02-15T03:12:43.320Z,12.80
2018-02-15T03:15:10.806Z,12.30
2018-02-15T03:17:38.313Z,11.45
2018-02-15T03:20:06.577Z,11.45
2018-02-15T03:22:34.102Z,11.95
2018-02-15T03:25:01.597Z,11.90
2018-02-15T03:27:29.231Z,11.27
2018-02-15T03:29:56.756Z,12.18
2018-02-15T03:32:24.264Z,11.25
2018-02-15T03:34:51.773Z,12.45
2018-02-15T03:37:19.281Z,13.05
2018-02-15T03:39:47.626Z,11.57
2018-02-15T03:42:15.131Z,12.85
2018-02-15T03:44:42.631Z,12.13
2018-02-15T03:47:10.881Z,11.77
2018-02-15T03:49:38.373Z,11.80
2018-02-15T03:52:06.621Z,11.48
2018-02-15T03:54:34.114Z,12.80
2018-02-15T03:57:01.608Z,11.65
2018-02-15T03:59:29.869Z,12.65
2018-02-15T04:01:57.449Z,11.10
2018-02-15T04:04:24.972Z,12.52
2018-02-15T04:06:52.466Z,12.32
2018-02-15T04:09:19.952Z,12.07
2018-02-15T04:11:47.461Z,11.88
2018-02-15T04:14:15.713Z,10.43
2018-02-15T04:16:43.205Z,12.30
2018-02-15T04:19:11.490Z,11.68
2018-02-15T04:21:39.754Z,10.80
2018-02-15T04:24:08.258Z,10.82
2018-02-15T04:26:35.780Z,11.52
2018-02-15T04:29:03.270Z,11.65
2018-02-15T04:31:30.880Z,10.85
2018-02-15T04:33:58.464Z,11.30
2018-02-15T04:36:26.721Z,11.95
2018-02-15T04:38:54.206Z,11.20
2018-02-15T04:41:21.731Z,11.00
2018-02-15T04:43:49.213Z,10.63
2018-02-15T04:46:16.705Z,10.02
2018-02-15T04:48:44.192Z,10.27
2018-02-15T04:51:11.710Z,10.57
2018-02-15T04:53:39.278Z,11.90
2018-02-15T04:56:06.756Z,9.98
2018-02-15T04:58:34.246Z,10.23
2018-02-15T05:01:01.747Z,12.15
2018-02-15T05:03:29.228Z,11.00
2018-02-15T05:05:57.491Z,11.10
2018-02-15T05:08:25.066Z,11.80
2018-02-15T05:10:52.582Z,10.93
2018-02-15T05:13:20.153Z,10.65
2018-02-15T05:15:47.639Z,11.30
2018-02-15T05:18:15.167Z,11.85
2018-02-15T05:20:43.454Z,10.80
2018-02-15T05:23:11.706Z,10.18
2018-02-15T05:25:40.045Z,9.98
2018-02-15T05:28:08.490Z,10.57
2018-02-15T05:30:35.977Z,10.05
2018-02-15T05:33:03.567Z,11.00
2018-02-15T05:35:32.203Z,11.30
2018-02-15T05:38:00.426Z,10.48
2018-02-15T05:40:27.928Z,10.23
2018-02-15T05:42:56.313Z,10.15
2018-02-15T05:45:24.586Z,10.38
2018-02-15T05:47:52.118Z,8.63
2018-02-15T05:50:19.703Z,9.82
2018-02-15T05:52:47.194Z,9.85
2018-02-15T05:55:14.679Z,10.85
2018-02-15T05:57:42.212Z,10.32
2018-02-15T06:00:09.677Z,9.65
2018-02-15T06:02:37.400Z,10.05
2018-02-15T06:05:05.648Z,9.75
2018-02-15T06:07:33.177Z,10.65
2018-02-15T06:10:01.081Z,10.57
2018-02-15T06:12:28.605Z,10.95
2018-02-15T06:14:56.127Z,10.90
2018-02-15T06:17:23.669Z,10.63
2018-02-15T06:19:52.018Z,9.95
2018-02-15T06:22:19.550Z,9.95
2018-02-15T06:24:47.062Z,9.95
2018-02-15T06:27:14.596Z,11.27
2018-02-15T06:29:42.227Z,10.50
2018-02-15T06:32:11.716Z,10.57
2018-02-15T06:34:39.251Z,9.82
2018-02-15T06:37:07.747Z,9.90
2018-02-15T06:39:35.410Z,9.88
2018-02-15T06:42:02.920Z,10.43
2018-02-15T06:44:30.605Z,10.10
2018-02-15T06:46:58.343Z,10.32
2018-02-15T06:49:25.892Z,9.85
2018-02-15T06:51:54.180Z,10.10
2018-02-15T06:54:22.512Z,11.30
2018-02-15T06:56:50.060Z,10.25
2018-02-15T06:59:17.582Z,10.05
2018-02-15T07:01:45.104Z,9.75
2018-02-15T07:04:12.679Z,10.43
2018-02-15T07:06:40.213Z,9.48
2018-02-15T07:09:07.751Z,9.98
2018-02-15T07:17:17.204Z,10.00
2018-02-15T07:19:44.742Z,9.75
2018-02-15T07:22:12.694Z,9.27
2018-02-15T07:24:40.254Z,9.52
2018-02-15T07:27:07.807Z,10.05
2018-02-15T07:29:36.131Z,9.70
2018-02-15T07:32:03.647Z,8.50
2018-02-15T07:34:31.155Z,10.52
2018-02-15T07:36:58.695Z,9.40
2018-02-15T07:39:26.618Z,10.13
2018-02-15T07:41:54.139Z,9.02
2018-02-15T07:44:21.671Z,9.52
2018-02-15T07:46:49.224Z,10.75
2018-02-15T07:49:16.753Z,9.95
2018-02-15T07:51:44.271Z,9.52
2018-02-15T07:54:11.837Z,8.77
2018-02-15T07:56:39.356Z,8.90
2018-02-15T07:59:07.046Z,9.43
2018-02-15T08:01:34.584Z,10.10
2018-02-15T08:04:02.655Z,9.38
2018-02-15T08:06:30.172Z,10.18
2018-02-15T08:08:57.690Z,10.07
2018-02-15T08:11:25.271Z,9.45
2018-02-15T08:13:53.083Z,9.75
2018-02-15T08:16:20.711Z,9.48
2018-02-15T08:18:48.270Z,9.48
2018-02-15T08:21:15.847Z,10.38
2018-02-15T08:23:44.344Z,9.52
2018-02-15T08:26:12.622Z,9.52
2018-02-15T08:28:40.971Z,8.77
2018-02-15T08:31:08.511Z,9.93
2018-02-15T08:33:36.824Z,8.32
2018-02-15T08:36:04.373Z,8.73
2018-02-15T08:38:31.899Z,8.93
2018-02-15T08:40:59.738Z,9.20
2018-02-15T08:43:27.427Z,9.52
2018-02-15T08:45:54.976Z,9.85
2018-02-15T08:48:22.499Z,10.13
2018-02-15T08:50:50.004Z,9.63
2018-02-15T08:53:17.564Z,8.98
2018-02-15T08:55:46.322Z,10.50
2018-02-15T08:58:15.098Z,10.85
2018-02-15T09:00:42.649Z,9.55
2018-02-15T09:03:10.964Z,10.23
2018-02-15T09:05:38.523Z,11.32
2018-02-15T09:08:06.209Z,10.05
2018-02-15T09:10:33.750Z,10.35
2018-02-15T09:13:02.163Z,10.50
2018-02-15T09:15:29.744Z,11.43
2018-02-15T09:17:57.306Z,11.60
2018-02-15T09:20:24.879Z,11.38
2018-02-15T09:22:52.414Z,11.32
2018-02-15T09:25:20.030Z,10.82
2018-02-15T09:27:47.553Z,11.20
2018-02-15T09:30:15.147Z,11.48
2018-02-15T09:32:43.666Z,11.88
2018-02-15T09:35:11.207Z,10.73
2018-02-15T09:37:39.717Z,10.73
2018-02-15T09:40:08.095Z,10.55
2018-02-15T09:42:36.401Z,10.90
2018-02-15T09:45:04.682Z,10.85
2018-02-15T09:47:32.977Z,12.80
2018-02-15T09:50:01.259Z,12.77
2018-02-15T09:52:29.559Z,12.90
2018-02-15T09:54:57.083Z,9.57
2018-02-15T09:57:24.598Z,10.93
2018-02-15T09:59:52.893Z,9.00
2018-02-15T10:02:20.449Z,10.05
2018-02-15T10:04:48.849Z,9.68
2018-02-15T10:07:17.137Z,10.02
2018-02-15T10:09:46.062Z,10.48
2018-02-15T10:12:13.585Z,9.65
2018-02-15T10:14:41.665Z,9.60
2018-02-15T10:17:09.198Z,9.85
2018-02-15T10:19:36.716Z,9.35
2018-02-15T10:22:04.336Z,8.85
2018-02-15T10:24:31.862Z,9.20
2018-02-15T10:26:59.386Z,9.80
2018-02-15T10:29:27.293Z,9.88
2018-02-15T10:31:54.812Z,10.80
2018-02-15T10:34:22.462Z,10.48
2018-02-15T10:36:50.065Z,10.50
2018-02-15T10:39:17.627Z,10.65
2018-02-15T10:41:45.929Z,10.35
2018-02-15T10:44:13.453Z,9.38
2018-02-15T10:46:41.250Z,10.60
2018-02-15T10:49:09.706Z,9.30
2018-02-15T10:51:37.301Z,12.20
2018-02-15T10:54:05.026Z,10.20
2018-02-15T10:56:32.582Z,10.35
2018-02-15T10:59:01.188Z,10.35
2018-02-15T11:01:34.490Z,10.35
2018-02-15T11:04:03.846Z,10.27
2018-02-15T11:06:31.353Z,9.93
2018-02-15T11:08:59.652Z,11.55
2018-02-15T11:11:29.149Z,10.25
2018-02-15T11:13:56.687Z,9.50
2018-02-15T11:16:24.214Z,9.57
2018-02-15T11:18:52.719Z,9.88
2018-02-15T11:21:20.381Z,10.60
2018-02-15T11:23:48.404Z,10.02
2018-02-15T11:26:16.418Z,10.27
2018-02-15T11:28:45.257Z,9.73
2018-02-15T11:31:13.220Z,10.57
2018-02-15T11:33:41.501Z,9.90
2018-02-15T11:36:09.613Z,9.82
2018-02-15T11:38:38.177Z,9.82
2018-02-15T11:41:07.745Z,9.40
2018-02-15T11:43:35.965Z,10.18
2018-02-15T11:46:04.042Z,10.93
2018-02-15T11:48:32.126Z,10.18
2018-02-15T11:51:01.852Z,11.75
2018-02-15T11:53:30.232Z,11.73
2018-02-15T11:55:57.893Z,10.38
2018-02-15T11:58:41.310Z,10.95
2018-02-15T12:01:09.484Z,10.02
2018-02-15T12:03:38.511Z,10.38
2018-02-15T12:06:06.257Z,10.60
2018-02-15T12:08:33.889Z,10.45
2018-02-15T12:11:03.489Z,11.60
2018-02-15T12:13:31.982Z,11.20
2018-02-15T12:16:02.032Z,11.20
2018-02-15T12:18:29.874Z,11.68
2018-02-15T12:20:58.206Z,10.77
2018-02-15T12:23:25.732Z,11.93
2018-02-15T12:25:54.090Z,12.50
2018-02-15T12:28:21.621Z,11.95
2018-02-15T12:30:49.139Z,12.02
2018-02-15T12:33:16.767Z,10.95
2018-02-15T12:35:44.481Z,11.27
2018-02-15T12:38:12.838Z,11.55
2018-02-15T12:40:41.030Z,12.30
2018-02-15T12:43:11.303Z,11.12
2018-02-15T12:45:40.030Z,10.80
2018-02-15T12:48:08.262Z,12.70
2018-02-15T12:50:36.598Z,11.98
2018-02-15T12:53:05.281Z,11.88
2018-02-15T12:55:38.158Z,11.75
2018-02-15T12:58:06.582Z,12.52
2018-02-15T13:00:34.323Z,12.93
2018-02-15T13:03:02.012Z,12.95
2018-02-15T13:05:29.523Z,11.45
2018-02-15T13:07:57.922Z,11.12
2018-02-15T13:10:25.637Z,11.88
2018-02-15T13:13:05.222Z,12.45
2018-02-15T13:15:44.702Z,12.77
2018-02-15T13:18:13.017Z,12.02
2018-02-15T13:20:40.606Z,12.35
2018-02-15T13:23:08.137Z,12.13
2018-02-15T13:25:36.549Z,11.73
2018-02-15T13:28:15.871Z,11.77
2018-02-15T13:30:44.369Z,11.23
2018-02-15T13:33:12.770Z,12.45
2018-02-15T13:35:41.208Z,12.27
2018-02-15T13:38:08.754Z,11.45
2018-02-15T13:40:36.489Z,11.18
2018-02-15T13:43:04.082Z,12.25
2018-02-15T13:45:32.396Z,11.07
2018-02-15T13:47:59.941Z,12.32
2018-02-15T13:50:27.830Z,11.15
2018-02-15T13:52:55.498Z,12.05
2018-02-15T13:55:23.411Z,10.90
2018-02-15T13:57:50.976Z,11.68
2018-02-15T14:00:18.559Z,11.82
2018-02-15T14:02:46.153Z,11.32
2018-02-15T14:05:13.771Z,10.95
2018-02-15T14:07:41.355Z,11.12
2018-02-15T14:10:09.163Z,10.93
2018-02-15T14:12:36.775Z,11.43
2018-02-15T14:15:05.152Z,12.23
2018-02-15T14:17:33.589Z,12.30
2018-02-15T14:20:01.124Z,11.85
2018-02-15T14:22:28.903Z,11.93
2018-02-15T14:24:57.449Z,12.20
2018-02-15T14:27:25.101Z,12.15
2018-02-15T14:29:52.655Z,11.73
2018-02-15T14:32:20.966Z,13.00
2018-02-15T14:34:48.598Z,12.65
2018-02-15T14:37:17.677Z,12.60
2018-02-15T14:39:45.330Z,13.25
2018-02-15T14:42:12.905Z,12.60
2018-02-15T14:44:40.446Z,12.45
2018-02-15T14:47:08.939Z,11.75
2018-02-15T14:49:37.246Z,13.07
2018-02-15T14:52:04.943Z,13.20
2018-02-15T14:54:32.469Z,11.02
2018-02-15T14:57:00.882Z,11.80
2018-02-15T14:59:28.847Z,11.57
2018-02-15T15:01:57.246Z,13.62
2018-02-15T15:04:25.740Z,11.82
2018-02-15T15:06:53.525Z,12.70
2018-02-15T15:09:21.045Z,13.45
2018-02-15T15:11:48.641Z,13.18
2018-02-15T15:14:16.921Z,13.23
2018-02-15T15:16:44.478Z,13.25
2018-02-15T15:19:12.005Z,13.38
2018-02-15T15:21:39.541Z,13.88
2018-02-15T15:24:07.245Z,13.77
2018-02-15T15:26:34.789Z,13.27
2018-02-15T15:29:03.112Z,12.18
2018-02-15T15:31:30.788Z,12.48
2018-02-15T15:33:58.387Z,14.65
2018-02-15T15:36:25.942Z,13.68
2018-02-15T15:38:53.729Z,17.83
2018-02-15T15:41:21.337Z,20.25
2018-02-15T15:43:50.308Z,41.40
2018-02-15T15:46:17.897Z,32.22
2018-02-15T15:48:45.518Z,22.13
2018-02-15T15:51:13.061Z,19.65
2018-02-15T15:53:41.412Z,15.43
2018-02-15T15:56:09.463Z,17.45
2018-02-15T15:58:37.760Z,15.55
2018-02-15T16:01:05.442Z,16.25
2018-02-15T16:03:33.105Z,24.17
2018-02-15T16:06:01.230Z,24.10
2018-02-15T16:08:29.284Z,18.87
2018-02-15T16:10:57.019Z,14.57
2018-02-15T16:13:24.891Z,29.70
2018-02-15T16:15:52.446Z,150.55
2018-02-15T16:18:20.258Z,48.20
2018-02-15T16:20:50.135Z,19.70
2018-02-15T16:23:19.542Z,16.95
2018-02-15T16:25:47.086Z,17.90
2018-02-15T16:28:15.476Z,25.02
2018-02-15T16:30:43.841Z,15.57
2018-02-15T16:33:12.327Z,17.60
2018-02-15T16:35:42.924Z,17.08
2018-02-15T16:38:10.488Z,15.90
2018-02-15T16:40:40.786Z,18.25
2018-02-15T16:43:09.161Z,16.67
2018-02-15T16:45:36.752Z,25.25
2018-02-15T16:48:04.841Z,16.33
2018-02-15T16:50:33.646Z,15.40
2018-02-15T16:53:01.254Z,16.50
2018-02-15T16:55:30.046Z,19.90
2018-02-15T16:57:57.820Z,14.40
2018-02-15T17:00:26.154Z,14.95
2018-02-15T17:02:54.096Z,14.60
2018-02-15T17:05:22.597Z,21.35
2018-02-15T17:07:50.324Z,16.95
2018-02-15T17:12:54.496Z,14.45
2018-02-15T17:15:22.824Z,14.90
2018-02-15T17:17:52.959Z,13.70
2018-02-15T17:20:20.866Z,14.05
2018-02-15T17:22:48.392Z,62.85
2018-02-15T17:25:16.447Z,64.68
2018-02-15T17:27:43.966Z,62.65
2018-02-15T17:30:11.514Z,32.70
2018-02-15T17:32:39.105Z,38.60
2018-02-15T17:35:07.422Z,22.13
2018-02-15T17:37:35.721Z,39.85
2018-02-15T17:40:04.718Z,25.08
2018-02-15T17:42:32.969Z,31.45
2018-02-15T17:45:00.865Z,32.28
2018-02-15T17:47:28.508Z,26.70
2018-02-15T17:49:58.646Z,22.70
2018-02-15T17:52:26.477Z,18.05
2018-02-15T17:54:55.067Z,19.25
2018-02-15T17:57:22.607Z,18.40
2018-02-15T17:59:50.247Z,18.50
2018-02-15T18:02:17.769Z,19.67
2018-02-15T18:04:45.355Z,20.92
2018-02-15T18:07:13.185Z,30.55
2018-02-15T18:09:40.713Z,19.83
2018-02-15T18:12:08.247Z,22.08
2018-02-15T18:14:35.799Z,30.20
2018-02-15T18:17:03.317Z,21.00
2018-02-15T18:19:30.943Z,24.70
2018-02-15T18:21:58.492Z,20.33
2018-02-15T18:24:26.871Z,21.52
2018-02-15T18:26:54.617Z,21.45
2018-02-15T18:29:22.170Z,24.08
2018-02-15T18:31:50.012Z,20.73
2018-02-15T18:34:23.216Z,20.40
2018-02-15T18:36:53.856Z,21.00
2018-02-15T18:39:22.664Z,21.77
2018-02-15T18:41:51.452Z,20.08
2018-02-15T18:44:19.002Z,20.30
2018-02-15T18:46:46.522Z,20.33
2018-02-15T18:49:14.972Z,19.98
2018-02-15T18:51:42.501Z,21.42
2018-02-15T18:54:11.514Z,19.55
2018-02-15T18:59:52.806Z,21.35
2018-02-15T19:02:20.321Z,21.27
2018-02-15T19:04:48.727Z,21.23
2018-02-15T19:07:16.262Z,20.85
2018-02-15T19:09:43.869Z,18.83
2018-02-15T19:12:12.266Z,20.02
2018-02-15T19:14:40.566Z,16.73
2018-02-15T19:17:08.096Z,17.42
2018-02-15T19:19:35.640Z,17.80
2018-02-15T19:28:15.079Z,19.45
2018-02-15T19:30:49.503Z,15.30
2018-02-15T19:36:12.902Z,18.37
2018-02-15T19:38:42.232Z,17.25
2018-02-15T19:41:10.005Z,17.30
2018-02-15T19:43:37.703Z,16.00
2018-02-15T19:46:08.288Z,16.40
2018-02-15T19:48:38.083Z,16.65
2018-02-15T19:54:16.398Z,17.20
2018-02-15T19:56:43.956Z,16.50
2018-02-15T19:59:13.321Z,15.73
2018-02-15T20:01:40.956Z,17.12
2018-02-15T20:04:13.787Z,15.80
2018-02-15T20:06:41.583Z,17.02
2018-02-15T20:09:09.298Z,16.83
2018-02-15T20:11:37.182Z,17.10
2018-02-15T20:14:05.527Z,16.90
2018-02-15T20:16:33.059Z,17.92
2018-02-15T20:19:00.589Z,17.55
2018-02-15T20:21:29.135Z,18.25
2018-02-15T20:23:56.664Z,18.50
2018-02-15T20:32:23.614Z,18.55
2018-02-15T20:34:51.200Z,17.60
2018-02-15T20:37:18.746Z,17.50
2018-02-15T20:42:50.458Z,19.02
2018-02-15T20:45:18.233Z,18.70
2018-02-15T20:47:45.754Z,17.33
2018-02-15T20:50:19.020Z,19.83
2018-02-15T20:52:52.257Z,19.17
2018-02-15T20:55:25.655Z,17.30
2018-02-15T20:57:55.879Z,18.90
2018-02-15T21:00:23.427Z,19.58
2018-02-15T21:02:50.971Z,21.30
2018-02-15T21:05:19.305Z,19.77
2018-02-15T21:07:46.831Z,22.90
2018-02-15T21:10:15.270Z,19.67
2018-02-15T21:12:42.889Z,19.67
2018-02-15T21:15:11.216Z,19.45
2018-02-15T21:17:39.110Z,17.08
2018-02-15T21:20:07.679Z,18.87
2018-02-15T21:22:35.224Z,17.17
2018-02-15T21:25:03.562Z,18.45
2018-02-15T21:27:31.727Z,16.90
2018-02-15T21:29:59.312Z,19.85
2018-02-15T21:32:26.833Z,17.05
2018-02-15T21:34:54.661Z,18.20
2018-02-15T21:37:22.468Z,17.77
2018-02-15T21:39:50.106Z,16.83
2018-02-15T21:42:17.669Z,17.75
2018-02-15T21:44:45.233Z,19.60
2018-02-15T21:47:12.754Z,18.83
2018-02-15T21:49:40.294Z,18.75
2018-02-15T21:52:07.844Z,17.87
2018-02-15T21:54:36.150Z,17.65
2018-02-15T21:57:03.724Z,17.90
2018-02-15T21:59:32.176Z,17.30
2018-02-15T22:01:59.740Z,16.25
2018-02-15T22:04:27.286Z,16.48
2018-02-15T22:06:54.813Z,15.00
2018-02-15T22:09:22.729Z,16.60
2018-02-15T22:11:50.375Z,16.58
2018-02-15T22:14:19.258Z,15.30
2018-02-15T22:16:47.667Z,15.13
2018-02-15T22:19:15.155Z,16.35
2018-02-15T22:21:43.128Z,14.87
2018-02-15T22:24:10.778Z,13.93
2018-02-15T22:26:39.049Z,13.60
2018-02-15T22:29:06.538Z,14.43
2018-02-15T22:31:38.022Z,17.95
2018-02-15T22:34:06.537Z,16.50
2018-02-15T22:36:34.113Z,16.35
2018-02-15T22:39:01.706Z,16.73
2018-02-15T22:41:34.389Z,17.00
2018-02-15T22:44:09.724Z,16.12
2018-02-15T22:46:51.273Z,16.02
2018-02-15T22:49:18.788Z,17.37
2018-02-15T22:51:47.750Z,15.98
2018-02-15T22:54:15.328Z,44.55
2018-02-15T22:56:43.655Z,19.25
2018-02-15T22:59:14.792Z,21.08
2018-02-15T23:01:42.321Z,18.55
2018-02-15T23:04:10.889Z,18.45
2018-02-15T23:06:38.376Z,18.05
2018-02-15T23:09:05.948Z,16.17
2018-02-15T23:11:38.076Z,15.05
2018-02-15T23:14:06.528Z,14.40
2018-02-15T23:16:34.125Z,13.60
2018-02-15T23:19:02.909Z,35.67
2018-02-15T23:21:30.518Z,19.00
2018-02-15T23:23:58.011Z,19.20
2018-02-15T23:26:25.502Z,20.50
2018-02-15T23:28:52.986Z,23.10
2018-02-15T23:31:20.533Z,32.42
2018-02-15T23:33:48.017Z,25.08
2018-02-15T23:36:15.580Z,20.90
2018-02-15T23:38:48.356Z,22.35
2018-02-15T23:41:15.848Z,24.25
2018-02-15T23:43:43.649Z,40.55
2018-02-15T23:46:11.129Z,110.72
2018-02-15T23:48:40.037Z,56.47
2018-02-15T23:51:08.889Z,57.75
2018-02-15T23:53:36.500Z,48.63
2018-02-15T23:56:03.998Z,36.97
2018-02-15T23:58:32.353Z,44.90
